»·PEaware :: N23EF KSNA-KBUR

N23EF :: KSNA-KBUR

FLIGHT INFORMATION

Flight Status: Arrived
Operator: Privately registered:
United States
More flights under this callsign
Pilot: John M. (23153)
Aircraft: PIPER PA-44 SEMINOLE
(PA44)
More flights by this aircraft type
Origin: KSNA John Wayne-Orange Co
United States
Destination: KBUR Bob Hope-Burbank
United States
More flights between these airports :: More routes between these airports
Route: +SLI V23 POPPR SMO125R SILEX
File this flight plan on PilotEdge
Remarks:
Altitude:
(Current/Filed)
4,000ft
Speed:
(Current/Filed)
180kts
Departed: 11-Feb-19 04:00 PM
Arrived: 11-Feb-19 04:29 PM
Distance/Time
Traveled:
0nm/0:28
Distance/Time
To Go:
Arrived

Flight Plot

Page will automatically refresh every two minutes.


Map Options




Map Legend


Flown Route
Filed Route
Departure Airport
Arrival Airport
Navaid (VOR, NDB)
Fix

Horizontal Profiles

Position Reports

Time Latitude Longitude Heading Altitude Ground
Speed
11-Feb-19 15:34 33.671194 -117.868023 211 59ft 0kts
11-Feb-19 15:35 33.671194 -117.868023 211 59ft 0kts
11-Feb-19 15:36 33.671194 -117.868023 211 59ft 0kts
11-Feb-19 15:37 33.671194 -117.868023 211 59ft 0kts
11-Feb-19 15:38 33.671194 -117.868023 211 59ft 0kts
11-Feb-19 15:42 33.671194 -117.868023 211 59ft 0kts
11-Feb-19 15:43 33.671194 -117.868023 211 59ft 0kts
11-Feb-19 15:44 33.671194 -117.868023 211 59ft 0kts
11-Feb-19 15:45 33.671194 -117.868023 211 59ft 0kts
11-Feb-19 15:46 33.671194 -117.868023 211 59ft 0kts
11-Feb-19 15:47 33.671194 -117.868023 211 59ft 0kts
11-Feb-19 15:50 33.671194 -117.868023 211 59ft 0kts
11-Feb-19 15:51 33.671194 -117.868023 211 59ft 0kts
11-Feb-19 15:52 33.671194 -117.868023 211 59ft 0kts
11-Feb-19 15:53 33.671194 -117.868023 211 59ft 0kts
11-Feb-19 15:54 33.671700 -117.867846 38 59ft 23kts
11-Feb-19 15:55 33.673520 -117.866765 344 59ft 6kts
11-Feb-19 15:56 33.676792 -117.865396 27 59ft 15kts
11-Feb-19 15:57 33.679945 -117.863589 304 59ft 0kts
11-Feb-19 15:58 33.679945 -117.863589 304 59ft 0kts
11-Feb-19 15:59 33.677397 -117.865875 206 60ft 87kts
11-Feb-19 16:00 33.646912 -117.898990 229 1313ft 162kts
11-Feb-19 16:01 33.635444 -117.945204 320 2818ft 158kts
11-Feb-19 16:02 33.676176 -117.950269 338 4101ft 150kts
11-Feb-19 16:03 33.718417 -117.979766 314 4032ft 191kts
11-Feb-19 16:04 33.756103 -118.026677 313 4031ft 197kts
11-Feb-19 16:05 33.794668 -118.075000 313 4030ft 201kts
11-Feb-19 16:06 33.832699 -118.122893 313 4030ft 202kts
11-Feb-19 16:07 33.868598 -118.168322 313 4030ft 202kts
11-Feb-19 16:08 33.904648 -118.214158 313 4031ft 201kts
11-Feb-19 16:09 33.885197 -118.265130 214 3981ft 203kts
11-Feb-19 16:10 33.871897 -118.321180 326 3264ft 219kts
11-Feb-19 16:11 33.916473 -118.338625 359 3878ft 198kts
11-Feb-19 16:12 33.943918 -118.392036 307 4309ft 179kts
11-Feb-19 16:13 33.984261 -118.434851 314 4326ft 195kts
11-Feb-19 16:14 34.029712 -118.473678 326 4213ft 204kts
11-Feb-19 16:15 34.078874 -118.508926 324 4116ft 200kts
11-Feb-19 16:16 34.123256 -118.549291 327 3965ft 204kts
11-Feb-19 16:17 34.170949 -118.586305 327 3837ft 204kts
11-Feb-19 16:18 34.218635 -118.623502 327 3735ft 203kts
11-Feb-19 16:19 34.238663 -118.675029 230 3710ft 177kts
11-Feb-19 16:20 34.205179 -118.653662 115 3717ft 167kts
11-Feb-19 16:21 34.195157 -118.599901 88 2848ft 165kts
11-Feb-19 16:22 34.195870 -118.553589 88 2849ft 130kts
11-Feb-19 16:23 34.199477 -118.512914 81 2851ft 115kts
11-Feb-19 16:24 34.199975 -118.475383 90 2455ft 95kts
11-Feb-19 16:25 34.199395 -118.446208 91 1994ft 79kts
11-Feb-19 16:26 34.198738 -118.416655 91 1544ft 84kts
11-Feb-19 16:27 34.198278 -118.387353 92 1069ft 78kts
11-Feb-19 16:28 34.198225 -118.363250 76 722ft 36kts
11-Feb-19 16:29 34.198020 -118.360408 41 715ft 3kts
11-Feb-19 16:30 34.198639 -118.360396 350 717ft 0kts
11-Feb-19 16:31 33.671194 -117.868023 211 59ft 0kts
11-Feb-19 16:32 33.671194 -117.868023 211 59ft 0kts
11-Feb-19 16:33 33.671194 -117.868023 211 59ft 0kts
11-Feb-19 16:34 33.671194 -117.868023 211 59ft 0kts
11-Feb-19 16:35 33.671194 -117.868023 211 59ft 0kts
11-Feb-19 16:36 33.671194 -117.868023 211 59ft 0kts
11-Feb-19 16:37 33.671194 -117.868023 211 59ft 0kts
11-Feb-19 16:38 33.671194 -117.868023 211 59ft 0kts
11-Feb-19 16:39 33.671194 -117.868023 211 59ft 0kts
11-Feb-19 16:40 33.671194 -117.868023 211 59ft 0kts
11-Feb-19 16:41 33.671194 -117.868023 211 59ft 0kts
11-Feb-19 16:42 33.671194 -117.868023 211 59ft 0kts

Navigation Log

Ident Type
Flight plan parsing failed, navigation log unavailable